Date,TemperatureHighF,TemperatureAvgF,TemperatureLowF,DewpointHighF,DewpointAvgF,DewpointLowF,HumidityHigh,HumidityAvg,HumidityLow,PressureMaxIn,PressureMinIn,WindSpeedMaxMPH,WindSpeedAvgMPH,GustSpeedMaxMPH,PrecipitationSumIn
2013-3-1,51,46,42,48,45,42,99,95,88,29.85,29.66,6,1,17,0.22
2013-3-2,63,52,43,51,44,36,93,72,54,30.09,29.90,6,1,10,0.01
2013-3-3,63,53,41,47,43,38,93,71,44,30.06,29.95,7,1,12,0.00
2013-3-4,65,57,49,52,49,46,92,74,59,29.92,29.65,11,3,23,0.04
2013-3-5,66,60,55,54,51,48,96,74,59,29.62,29.32,9,3,18,0.22
2013-3-6,69,60,51,54,52,50,99,75,59,29.59,29.28,7,2,13,0.11
2013-3-7,72,61,55,56,53,50,90,75,53,29.76,29.59,8,2,14,0.01
2013-3-8,71,61,54,56,49,46,90,66,46,29.82,29.64,11,2,21,0.01
2013-3-9,69,60,54,54,49,45,87,68,47,29.80,29.72,9,2,15,0.00
2013-3-10,66,59,52,51,46,42,88,64,48,29.73,29.65,8,3,14,0.00
2013-3-11,64,56,50,52,47,43,93,72,54,29.72,29.65,8,2,21,0.00
2013-3-12,62,54,47,50,45,39,85,72,58,29.65,29.57,8,2,13,0.00
2013-3-13,52,40,37,48,39,37,99,98,83,29.61,29.38,11,1,23,1.11
2013-3-14,53,47,41,40,35,33,95,64,48,29.82,29.64,9,2,27,0.00
2013-3-15,54,47,37,40,34,26,75,62,50,30.07,29.85,7,2,15,0.00
2013-3-16,58,49,37,44,42,25,90,76,54,30.05,29.85,8,2,18,0.00
2013-3-17,62,56,46,53,47,38,93,70,57,29.80,29.51,5,1,9,0.25
2013-3-18,62,55,45,53,46,36,99,75,50,29.78,29.48,6,2,11,0.12
2013-3-19,68,57,43,54,49,41,95,75,50,29.76,29.58,8,1,11,0.00
2013-3-20,65,52,44,55,49,43,98,89,64,30.10,29.56,6,1,12,0.19
2013-3-21,64,55,43,58,50,42,97,84,69,30.11,29.96,5,1,11,0.00
2013-3-22,73,61,45,55,48,38,89,64,48,29.91,29.73,5,1,11,0.00
2013-3-23,65,56,52,53,49,46,90,77,63,29.71,29.59,4,1,8,0.00
2013-3-24,60,53,49,54,49,46,95,87,76,29.64,29.53,5,1,10,0.00
2013-3-25,64,59,52,51,48,43,86,66,50,29.77,29.63,7,2,14,0.00
2013-3-26,66,60,55,55,53,49,94,76,62,29.71,29.62,5,2,11,0.17
2013-3-27,69,60,53,57,51,48,93,74,54,29.71,29.59,6,1,11,0.01
2013-3-28,69,60,52,57,52,48,96,78,57,29.87,29.66,6,1,11,0.00
2013-3-29,66,60,52,54,51,48,85,73,63,29.88,29.73,8,2,17,0.00
2013-3-30,68,62,57,53,49,43,80,62,45,29.85,29.66,11,3,24,0.00
2013-3-31,70,59,53,50,47,43,82,64,43,29.84,29.66,8,2,13,0.00